Time;durP1;ratioP1;P1;durP2;ratioP2;P2;SDS_P1;SDS_P2;PMS_P1;PMS_P2;Temp;Humidity;BMP_temperature;BMP_pressure;BME280_temperature;BME280_humidity;BME280_pressure;Samples;Min_cycle;Max_cycle;Signal;HPM_P1;HPM_P2
2023/08/02 00:01:28;;;;;;;5.00;2.30;;;15.80;1.00;;;;;;4991387;28;20264;-72
2023/08/02 00:03:54;;;;;;;5.00;2.67;;;15.80;1.00;;;;;;4993851;28;20200;-73
2023/08/02 00:06:21;;;;;;;4.10;2.20;;;15.90;1.00;;;;;;4994959;28;20212;-72
2023/08/02 00:08:47;;;;;;;3.38;2.13;;;15.80;1.00;;;;;;4993008;28;20363;-73
2023/08/02 00:11:17;;;;;;;4.72;2.42;;;15.80;1.00;;;;;;4994090;28;20278;-72
2023/08/02 00:13:44;;;;;;;3.75;2.53;;;15.90;1.00;;;;;;4992498;28;20215;-72
2023/08/02 00:16:10;;;;;;;3.42;2.25;;;15.80;1.00;;;;;;4993663;28;20749;-73
2023/08/02 00:18:36;;;;;;;3.42;2.88;;;15.80;1.00;;;;;;4992486;28;20184;-73
2023/08/02 00:21:15;;;;;;;4.13;2.40;;;15.90;1.00;;;;;;4992433;28;20641;-72
2023/08/02 00:23:41;;;;;;;3.47;2.40;;;15.90;1.00;;;;;;4992442;28;20196;-73
2023/08/02 00:26:06;;;;;;;3.63;2.20;;;15.90;1.00;;;;;;4992189;28;20184;-73
2023/08/02 00:28:35;;;;;;;4.53;2.42;;;15.90;1.00;;;;;;4990680;28;20698;-73
2023/08/02 00:31:00;;;;;;;3.90;2.22;;;16.00;1.00;;;;;;4989142;28;20675;-73
2023/08/02 00:33:26;;;;;;;3.95;2.25;;;15.90;1.00;;;;;;4990339;28;20216;-73
2023/08/02 00:35:56;;;;;;;3.92;2.17;;;15.90;1.00;;;;;;4990589;28;20194;-73
2023/08/02 00:38:22;;;;;;;3.03;2.10;;;16.00;99.90;;;;;;4989047;28;20187;-72
2023/08/02 00:40:48;;;;;;;3.65;2.10;;;16.00;99.90;;;;;;4988739;28;20287;-72
2023/08/02 00:43:14;;;;;;;4.68;2.42;;;16.10;90.60;;;;;;4988446;28;20621;-73
2023/08/02 00:45:40;;;;;;;3.38;2.58;;;16.00;99.90;;;;;;4987371;28;20215;-74
2023/08/02 00:48:06;;;;;;;8.05;3.45;;;16.00;99.90;;;;;;4987953;28;20172;-74
2023/08/02 00:50:35;;;;;;;4.03;2.88;;;16.00;99.90;;;;;;4987972;28;20715;-75
2023/08/02 00:53:02;;;;;;;3.78;2.50;;;16.00;99.90;;;;;;4990012;28;20635;-73
2023/08/02 00:55:28;;;;;;;4.82;2.40;;;16.00;99.90;;;;;;4988478;28;20188;-73
2023/08/02 00:57:53;;;;;;;4.25;2.45;;;16.10;99.90;;;;;;4987481;28;20191;-73
2023/08/02 01:00:19;;;;;;;3.53;2.53;;;16.10;99.90;;;;;;4988152;28;20216;-74
2023/08/02 01:02:45;;;;;;;4.07;2.55;;;16.10;99.90;;;;;;4988677;28;20187;-73
2023/08/02 01:05:11;;;;;;;4.50;2.95;;;16.00;99.90;;;;;;4987986;28;20212;-73
2023/08/02 01:07:52;;;;;;;5.78;3.17;;;15.90;99.90;;;;;;4987487;28;20236;-73
2023/08/02 01:10:38;;;;;;;4.13;2.70;;;15.80;99.90;;;;;;4987361;28;20262;-74
2023/08/02 01:13:04;;;;;;;4.32;2.40;;;15.80;99.90;;;;;;4988164;28;20180;-74
2023/08/02 01:15:33;;;;;;;4.47;2.55;;;15.80;99.90;;;;;;4987934;28;20961;-73
2023/08/02 01:17:59;;;;;;;4.78;2.80;;;15.70;99.90;;;;;;4987403;28;20184;-74
2023/08/02 01:20:25;;;;;;;3.97;2.70;;;15.70;99.90;;;;;;4987692;28;20204;-74
2023/08/02 01:22:50;;;;;;;3.97;2.70;;;15.80;99.90;;;;;;4987503;28;20242;-74
2023/08/02 01:25:16;;;;;;;4.03;2.83;;;15.80;99.90;;;;;;4987959;28;20240;-73
2023/08/02 01:27:46;;;;;;;3.42;2.70;;;15.80;99.90;;;;;;4986947;28;20251;-74
2023/08/02 01:30:14;;;;;;;5.97;3.20;;;15.90;99.90;;;;;;4987497;28;20558;-74
2023/08/02 01:32:40;;;;;;;5.05;2.67;;;15.90;99.90;;;;;;4987708;28;20188;-73
2023/08/02 01:35:08;;;;;;;2.92;2.45;;;16.00;73.30;;;;;;4988229;28;20604;-73
2023/08/02 01:37:35;;;;;;;4.40;2.70;;;16.00;99.90;;;;;;4986714;28;20342;-73
2023/08/02 01:40:02;;;;;;;5.63;2.72;;;16.00;99.90;;;;;;4986986;28;20180;-74
2023/08/02 01:42:27;;;;;;;3.65;2.40;;;16.00;99.90;;;;;;4987598;28;20179;-74
2023/08/02 01:44:53;;;;;;;3.72;2.58;;;16.00;97.50;;;;;;4987047;28;20211;-73
2023/08/02 01:47:19;;;;;;;3.33;2.33;;;16.00;92.00;;;;;;4986856;28;20184;-73
2023/08/02 01:49:44;;;;;;;4.80;2.35;;;16.10;94.20;;;;;;4984677;28;20259;-73
2023/08/02 01:52:10;;;;;;;2.35;2.15;;;16.00;65.40;;;;;;4986780;28;20184;-74
2023/08/02 01:54:36;;;;;;;4.60;2.50;;;16.00;12.70;;;;;;4985983;28;20192;-73
2023/08/02 01:57:02;;;;;;;6.05;2.83;;;16.00;3.30;;;;;;4986114;28;20278;-74
2023/08/02 01:59:27;;;;;;;3.25;2.30;;;16.00;49.30;;;;;;4986719;28;20271;-74
2023/08/02 02:01:53;;;;;;;6.38;2.58;;;16.00;85.50;;;;;;4986598;28;20231;-74
2023/08/02 02:04:18;;;;;;;3.58;2.55;;;15.90;50.70;;;;;;4986881;28;20651;-73
2023/08/02 02:06:44;;;;;;;3.47;2.40;;;15.90;78.80;;;;;;4986370;28;20195;-74
2023/08/02 02:09:10;;;;;;;4.57;2.72;;;15.90;99.90;;;;;;4986074;28;20243;-73
2023/08/02 02:11:35;;;;;;;4.25;2.50;;;15.90;99.90;;;;;;4986470;28;20475;-74
2023/08/02 02:14:01;;;;;;;4.35;2.35;;;15.90;99.90;;;;;;4986755;28;20180;-73
2023/08/02 02:16:27;;;;;;;4.25;2.50;;;16.00;80.60;;;;;;4986536;28;20628;-74
2023/08/02 02:18:52;;;;;;;5.22;2.70;;;16.00;23.70;;;;;;4986390;28;20267;-73
2023/08/02 02:21:18;;;;;;;3.45;2.40;;;16.00;42.70;;;;;;4984902;28;20645;-74
2023/08/02 02:23:43;;;;;;;4.10;2.45;;;16.00;22.80;;;;;;4986462;28;20223;-73
2023/08/02 02:26:09;;;;;;;4.32;2.90;;;16.00;1.00;;;;;;4985886;28;20180;-74
2023/08/02 02:28:35;;;;;;;5.72;2.55;;;16.00;1.00;;;;;;4985787;28;20184;-73
2023/08/02 02:31:01;;;;;;;5.35;2.80;;;16.10;1.00;;;;;;4986160;28;20291;-74
2023/08/02 02:33:27;;;;;;;3.50;2.78;;;16.10;1.00;;;;;;4986424;28;20215;-73
2023/08/02 02:35:52;;;;;;;4.30;2.53;;;16.10;1.00;;;;;;4986099;28;20227;-73
2023/08/02 02:38:18;;;;;;;4.53;2.22;;;16.10;1.00;;;;;;4985729;28;20231;-74
2023/08/02 02:40:43;;;;;;;5.55;2.50;;;16.10;1.00;;;;;;4986067;28;20218;-73
2023/08/02 02:43:09;;;;;;;5.68;3.05;;;16.10;1.00;;;;;;4984550;28;20188;-74
2023/08/02 02:45:35;;;;;;;5.95;2.75;;;16.10;1.00;;;;;;4986376;28;20271;-73
2023/08/02 02:48:00;;;;;;;5.78;2.83;;;16.10;1.00;;;;;;4985265;28;20579;-74
2023/08/02 02:50:26;;;;;;;3.00;2.40;;;16.10;1.00;;;;;;4985662;28;20200;-74
2023/08/02 02:52:51;;;;;;;4.72;2.30;;;16.00;1.00;;;;;;4985865;28;20276;-73
2023/08/02 02:55:17;;;;;;;4.43;2.40;;;16.10;1.00;;;;;;4985991;28;20234;-74
2023/08/02 02:57:43;;;;;;;5.28;2.65;;;16.00;1.00;;;;;;4985099;28;20283;-74
2023/08/02 03:00:09;;;;;;;4.57;3.08;;;16.00;1.00;;;;;;4985602;28;20215;-74
2023/08/02 03:02:34;;;;;;;4.10;2.60;;;16.00;1.00;;;;;;4985782;28;20180;-73
2023/08/02 03:05:00;;;;;;;4.35;2.63;;;16.00;1.00;;;;;;4985344;28;20227;-75
2023/08/02 03:07:26;;;;;;;4.25;2.70;;;15.90;1.00;;;;;;4985373;28;20182;-73
2023/08/02 03:09:51;;;;;;;4.07;2.67;;;15.80;1.00;;;;;;4985344;28;20214;-74
2023/08/02 03:12:17;;;;;;;4.82;2.40;;;15.70;22.00;;;;;;4985800;28;20262;-73
2023/08/02 03:14:42;;;;;;;2.53;2.33;;;15.50;1.00;;;;;;4985641;28;20188;-74
2023/08/02 03:17:08;;;;;;;4.57;2.63;;;15.50;17.60;;;;;;4985044;28;20723;-74
2023/08/02 03:19:34;;;;;;;6.13;2.92;;;15.50;34.60;;;;;;4985066;28;20673;-74
2023/08/02 03:21:59;;;;;;;4.50;2.53;;;15.40;29.40;;;;;;4985527;28;20742;-73
2023/08/02 03:24:25;;;;;;;3.65;2.28;;;15.40;99.90;;;;;;4985373;28;20214;-74
2023/08/02 03:26:51;;;;;;;3.90;2.72;;;15.30;99.90;;;;;;4985321;28;20176;-73
2023/08/02 03:29:16;;;;;;;3.97;2.50;;;15.30;90.90;;;;;;4984864;28;20203;-74
2023/08/02 03:31:43;;;;;;;4.57;2.58;;;15.30;99.90;;;;;;4985104;28;20208;-74
2023/08/02 03:34:09;;;;;;;3.65;2.70;;;15.30;99.90;;;;;;4985302;28;20207;-73
2023/08/02 03:36:34;;;;;;;2.40;2.20;;;15.30;99.90;;;;;;4985129;28;20278;-73
2023/08/02 03:39:00;;;;;;;6.68;2.53;;;15.20;99.90;;;;;;4983982;28;20255;-74
2023/08/02 03:41:26;;;;;;;6.75;2.58;;;15.20;99.90;;;;;;4984911;28;20585;-75
2023/08/02 03:43:52;;;;;;;3.05;2.28;;;15.20;99.90;;;;;;4984189;28;20203;-73
2023/08/02 03:46:18;;;;;;;3.50;2.55;;;15.10;99.90;;;;;;4985062;28;20185;-74
2023/08/02 03:48:43;;;;;;;2.88;2.35;;;15.00;99.90;;;;;;4983542;28;20215;-73
2023/08/02 03:51:09;;;;;;;2.92;2.42;;;15.10;99.90;;;;;;4984772;28;20207;-74
2023/08/02 03:53:34;;;;;;;2.95;2.33;;;15.10;99.90;;;;;;4985023;28;20219;-73
2023/08/02 03:56:00;;;;;;;2.55;2.05;;;15.10;99.90;;;;;;4984827;28;20203;-74
2023/08/02 03:58:26;;;;;;;3.60;2.50;;;15.20;42.50;;;;;;4984605;28;20193;-74
2023/08/02 04:00:52;;;;;;;4.22;2.30;;;15.20;99.90;;;;;;4984579;28;20222;-74
2023/08/02 04:03:19;;;;;;;2.65;2.00;;;15.30;99.90;;;;;;4984741;28;20184;-75
2023/08/02 04:05:44;;;;;;;3.53;2.20;;;15.30;96.90;;;;;;4985070;28;20206;-73
2023/08/02 04:08:10;;;;;;;4.13;2.50;;;15.40;59.10;;;;;;4984048;28;20636;-73
2023/08/02 04:10:39;;;;;;;4.97;2.33;;;15.40;39.90;;;;;;4984795;28;20199;-73
2023/08/02 04:13:05;;;;;;;3.35;2.28;;;15.50;1.00;;;;;;4984887;28;20648;-73
2023/08/02 04:15:31;;;;;;;3.03;2.03;;;15.50;53.20;;;;;;4984724;28;20195;-73
2023/08/02 04:17:57;;;;;;;3.97;2.50;;;15.60;90.60;;;;;;4984251;28;20212;-74
2023/08/02 04:20:23;;;;;;;4.03;2.25;;;15.60;70.00;;;;;;4984538;28;20388;-73
2023/08/02 04:22:49;;;;;;;3.42;2.15;;;15.60;99.90;;;;;;4984863;28;20191;-73
2023/08/02 04:25:16;;;;;;;7.22;2.47;;;15.60;81.80;;;;;;4985150;28;20211;-73
2023/08/02 04:27:41;;;;;;;3.67;2.28;;;15.70;1.00;;;;;;4984888;28;20250;-74
2023/08/02 04:30:08;;;;;;;4.72;2.15;;;15.80;92.20;;;;;;4985490;28;20200;-73
2023/08/02 04:32:35;;;;;;;4.55;2.38;;;15.80;10.20;;;;;;4987905;28;20172;-74
2023/08/02 04:35:01;;;;;;;3.42;2.00;;;15.80;1.00;;;;;;4989367;28;20691;-73
2023/08/02 04:37:28;;;;;;;3.60;2.13;;;15.70;1.00;;;;;;4987690;28;20184;-73
2023/08/02 04:39:55;;;;;;;4.47;2.03;;;15.70;1.00;;;;;;4988272;28;20707;-75
2023/08/02 04:42:20;;;;;;;3.25;2.03;;;15.70;1.00;;;;;;4987879;28;20184;-75
2023/08/02 04:44:46;;;;;;;4.72;2.15;;;15.80;1.00;;;;;;4987424;28;20576;-74
2023/08/02 04:47:12;;;;;;;2.85;2.00;;;15.90;1.00;;;;;;4986181;28;20718;-73
2023/08/02 04:49:37;;;;;;;2.90;1.90;;;15.90;1.00;;;;;;4986039;28;20180;-74
2023/08/02 04:52:04;;;;;;;4.13;2.22;;;15.90;1.00;;;;;;4987784;28;20671;-74
2023/08/02 04:54:30;;;;;;;3.90;1.95;;;16.00;1.00;;;;;;4988561;28;20192;-73
2023/08/02 04:56:55;;;;;;;4.07;2.10;;;16.00;1.00;;;;;;4987773;28;20188;-74
2023/08/02 04:59:23;;;;;;;3.67;1.77;;;16.10;1.00;;;;;;4987965;28;20234;-73
2023/08/02 05:01:48;;;;;;;4.05;2.08;;;16.30;1.00;;;;;;4987850;28;20220;-74
2023/08/02 05:04:15;;;;;;;5.38;2.22;;;16.50;1.00;;;;;;4988084;28;20212;-74
2023/08/02 05:06:42;;;;;;;4.13;2.22;;;16.70;1.00;;;;;;4988241;28;20176;-73
2023/08/02 05:09:08;;;;;;;3.55;1.70;;;17.00;1.00;;;;;;4987414;28;20287;-74
2023/08/02 05:11:34;;;;;;;4.57;1.90;;;17.90;99.90;;;;;;4987754;28;20212;-74
2023/08/02 05:14:00;;;;;;;2.95;1.67;;;18.90;99.90;;;;;;4988025;28;20196;-74
2023/08/02 05:16:26;;;;;;;2.40;1.60;;;19.40;99.90;;;;;;4987702;28;20271;-74
2023/08/02 05:18:52;;;;;;;3.60;2.15;;;19.10;99.90;;;;;;4987102;28;20711;-74
2023/08/02 05:21:19;;;;;;;3.83;1.73;;;19.90;68.20;;;;;;4987297;28;20208;-72
2023/08/02 05:23:45;;;;;;;3.47;1.63;;;20.80;1.00;;;;;;4984735;28;20755;-74
2023/08/02 05:26:12;;;;;;;3.08;1.70;;;21.90;1.00;;;;;;4987091;28;20200;-73
2023/08/02 05:28:39;;;;;;;2.30;1.40;;;23.00;1.00;;;;;;4986790;28;20575;-74
2023/08/02 05:31:09;;;;;;;2.33;1.50;;;23.70;1.00;;;;;;4985405;28;20210;-73
2023/08/02 05:33:35;;;;;;;2.55;1.48;;;23.90;1.00;;;;;;4987500;28;20181;-73
2023/08/02 05:36:01;;;;;;;2.75;1.40;;;23.50;1.00;;;;;;4987593;28;20622;-75
2023/08/02 05:38:27;;;;;;;1.98;1.35;;;22.50;1.00;;;;;;4986762;28;20286;-74
2023/08/02 05:40:52;;;;;;;2.42;1.45;;;20.60;1.00;;;;;;4987231;28;20208;-73
2023/08/02 05:43:19;;;;;;;2.55;1.23;;;21.60;1.00;;;;;;4986165;28;20192;-74
2023/08/02 05:45:50;;;;;;;1.67;1.10;;;22.10;1.00;;;;;;4987789;28;20190;-74
2023/08/02 05:48:16;;;;;;;3.08;1.33;;;23.10;1.00;;;;;;4986598;28;20176;-74
2023/08/02 05:50:42;;;;;;;2.97;1.33;;;23.90;1.00;;;;;;4987059;28;20223;-75
2023/08/02 05:53:07;;;;;;;2.83;1.20;;;24.00;1.00;;;;;;4987695;28;20180;-74
2023/08/02 05:55:33;;;;;;;3.35;1.83;;;22.20;1.00;;;;;;4987079;28;20184;-74
2023/08/02 05:57:58;;;;;;;3.45;1.33;;;21.30;1.00;;;;;;4986635;28;20192;-74
2023/08/02 06:00:24;;;;;;;2.15;1.10;;;20.80;1.00;;;;;;4986083;28;20229;-74
2023/08/02 06:02:50;;;;;;;3.13;1.45;;;20.30;1.00;;;;;;4986936;28;20203;-74
2023/08/02 06:05:16;;;;;;;4.47;1.40;;;19.80;1.00;;;;;;4986927;28;20282;-73
2023/08/02 06:07:42;;;;;;;2.72;1.40;;;19.30;1.00;;;;;;4986070;28;20632;-74
2023/08/02 06:10:08;;;;;;;4.57;2.00;;;19.20;1.00;;;;;;4986809;28;20207;-73
2023/08/02 06:12:33;;;;;;;3.63;1.45;;;19.20;1.00;;;;;;4987427;28;20208;-73
2023/08/02 06:14:59;;;;;;;2.60;1.10;;;19.30;1.00;;;;;;4989640;28;20298;-74
2023/08/02 06:17:26;;;;;;;5.53;1.40;;;19.50;1.00;;;;;;4986507;28;20655;-73
2023/08/02 06:19:52;;;;;;;1.90;0.95;;;19.90;1.00;;;;;;4986308;28;20215;-74
2023/08/02 06:22:17;;;;;;;3.05;1.67;;;20.30;1.00;;;;;;4983585;28;20184;-73
2023/08/02 06:24:43;;;;;;;2.70;1.40;;;20.40;1.00;;;;;;4989877;28;20573;-73
2023/08/02 06:27:10;;;;;;;2.70;1.40;;;20.50;1.00;;;;;;4989688;28;20681;-73
2023/08/02 06:29:36;;;;;;;3.35;1.20;;;20.70;1.00;;;;;;4988736;28;20199;-74
2023/08/02 06:32:02;;;;;;;2.30;1.10;;;20.90;1.00;;;;;;4990084;28;20294;-73
2023/08/02 06:34:28;;;;;;;3.17;1.65;;;21.10;1.00;;;;;;4990992;28;20564;-73
2023/08/02 06:36:54;;;;;;;1.48;1.05;;;21.10;1.00;;;;;;4989380;28;20184;-73
2023/08/02 06:39:20;;;;;;;1.52;1.20;;;21.10;1.00;;;;;;4989406;28;20190;-73
2023/08/02 06:41:45;;;;;;;2.10;1.13;;;21.30;1.00;;;;;;4989470;28;20262;-73
2023/08/02 06:44:13;;;;;;;2.90;1.33;;;21.30;1.00;;;;;;4988458;28;20228;-74
2023/08/02 06:46:40;;;;;;;2.53;1.55;;;21.30;1.00;;;;;;4988105;28;20711;-73
2023/08/02 06:49:06;;;;;;;2.60;1.05;;;22.90;1.00;;;;;;4988255;28;20283;-73
2023/08/02 06:51:31;;;;;;;1.92;1.00;;;24.50;1.00;;;;;;4986119;28;20287;-74
2023/08/02 06:53:57;;;;;;;2.40;1.00;;;25.90;1.00;;;;;;4985864;28;20180;-74
2023/08/02 06:56:24;;;;;;;1.80;1.00;;;26.90;1.00;;;;;;4986511;28;20642;-74
2023/08/02 06:58:49;;;;;;;2.15;1.08;;;28.00;1.00;;;;;;4984386;28;20192;-72
2023/08/02 07:01:19;;;;;;;2.22;1.10;;;29.00;99.90;;;;;;4983718;28;20301;-73
2023/08/02 07:03:46;;;;;;;1.45;0.95;;;28.90;99.90;;;;;;4984983;28;20671;-73
2023/08/02 07:06:13;;;;;;;2.05;1.08;;;27.70;99.90;;;;;;4985608;28;20188;-73
2023/08/02 07:08:40;;;;;;;1.55;1.17;;;26.90;99.90;;;;;;4985151;28;20169;-73
2023/08/02 07:11:06;;;;;;;2.92;1.30;;;25.30;99.90;;;;;;4984471;28;20565;-74
2023/08/02 07:13:33;;;;;;;1.58;1.00;;;24.10;99.90;;;;;;4985685;28;20539;-73
2023/08/02 07:15:59;;;;;;;2.13;1.10;;;23.90;99.90;;;;;;4985364;28;20185;-74
2023/08/02 07:18:25;;;;;;;1.42;1.05;;;23.40;99.90;;;;;;4985129;28;20192;-73
2023/08/02 07:20:51;;;;;;;2.65;1.30;;;22.40;99.90;;;;;;4984605;28;20231;-73
2023/08/02 07:23:16;;;;;;;2.58;1.30;;;21.60;99.90;;;;;;4985165;28;20220;-72
2023/08/02 07:25:42;;;;;;;2.10;1.20;;;20.90;1.00;;;;;;4983435;28;20280;-73
2023/08/02 07:28:08;;;;;;;1.98;1.10;;;20.60;1.00;;;;;;4984680;28;20187;-72
2023/08/02 07:30:33;;;;;;;1.50;1.30;;;20.40;1.00;;;;;;4985462;28;20200;-73
2023/08/02 07:32:59;;;;;;;2.92;1.30;;;20.20;1.00;;;;;;4985034;28;20184;-74
2023/08/02 07:35:25;;;;;;;2.30;1.23;;;20.20;1.00;;;;;;4985902;28;20184;-74
2023/08/02 07:37:50;;;;;;;2.08;1.30;;;20.20;1.00;;;;;;4984868;28;20219;-73
2023/08/02 07:40:16;;;;;;;1.52;1.23;;;20.20;1.00;;;;;;4985475;28;21463;-75
2023/08/02 07:42:42;;;;;;;1.27;0.95;;;20.40;1.00;;;;;;4985472;28;20563;-74
2023/08/02 07:45:09;;;;;;;2.30;1.23;;;20.40;1.00;;;;;;4985644;28;20212;-74
2023/08/02 07:47:36;;;;;;;2.42;1.10;;;20.60;1.00;;;;;;4984768;28;20255;-73
2023/08/02 07:50:03;;;;;;;3.90;1.70;;;20.80;1.00;;;;;;4984547;28;20180;-73
2023/08/02 07:52:29;;;;;;;1.98;1.00;;;21.00;1.00;;;;;;4985082;28;20183;-74
2023/08/02 07:54:54;;;;;;;1.20;0.98;;;21.10;1.00;;;;;;4985206;28;20188;-73
2023/08/02 07:57:26;;;;;;;2.03;1.30;;;21.20;1.00;;;;;;4984672;28;20226;-75
2023/08/02 07:59:52;;;;;;;2.05;1.20;;;21.30;1.00;;;;;;4982838;28;20196;-73
2023/08/02 08:02:19;;;;;;;3.30;1.20;;;21.40;1.00;;;;;;4985351;28;20207;-73
2023/08/02 08:04:45;;;;;;;1.58;1.00;;;21.70;1.00;;;;;;4985142;28;20246;-73
2023/08/02 08:07:11;;;;;;;4.30;1.23;;;21.80;1.00;;;;;;4985063;28;20591;-74
2023/08/02 08:09:37;;;;;;;2.33;0.95;;;21.70;1.00;;;;;;4985280;28;20180;-73
2023/08/02 08:12:04;;;;;;;1.58;0.98;;;21.80;1.00;;;;;;4985016;28;20227;-75
2023/08/02 08:14:30;;;;;;;2.85;1.08;;;21.90;1.00;;;;;;4985413;28;20199;-73
2023/08/02 08:16:59;;;;;;;2.13;1.10;;;21.90;1.00;;;;;;4984862;28;20766;-74
2023/08/02 08:19:26;;;;;;;2.63;1.10;;;22.10;1.00;;;;;;4983504;28;20622;-74
2023/08/02 08:21:51;;;;;;;4.18;1.27;;;22.20;1.00;;;;;;4985021;28;20200;-74
2023/08/02 08:24:17;;;;;;;2.00;1.50;;;22.30;1.00;;;;;;4985110;28;20215;-72
2023/08/02 08:26:43;;;;;;;12.20;3.42;;;22.40;1.00;;;;;;4988816;28;20293;-73
2023/08/02 08:29:09;;;;;;;8.40;1.50;;;22.30;1.00;;;;;;4988457;28;20774;-74
2023/08/02 08:31:35;;;;;;;2.53;1.20;;;22.20;1.00;;;;;;4989014;28;20897;-76
2023/08/02 08:34:01;;;;;;;1.40;1.00;;;22.10;1.00;;;;;;4988517;28;20671;-75
2023/08/02 08:36:29;;;;;;;1.95;1.13;;;21.80;1.00;;;;;;4988443;28;20539;-75
2023/08/02 08:38:58;;;;;;;1.55;1.30;;;21.60;1.00;;;;;;4987550;28;20185;-75
2023/08/02 08:41:24;;;;;;;1.85;1.10;;;21.40;1.00;;;;;;4988322;28;20212;-76
2023/08/02 08:43:50;;;;;;;1.02;0.90;;;21.30;1.00;;;;;;4988491;28;20278;-76
2023/08/02 08:46:16;;;;;;;2.88;1.30;;;21.50;1.00;;;;;;4988249;28;20192;-75
2023/08/02 08:48:42;;;;;;;1.80;1.10;;;21.90;1.00;;;;;;4987791;28;20609;-75
2023/08/02 08:51:13;;;;;;;2.55;1.40;;;22.10;1.00;;;;;;4986971;28;20323;-75
2023/08/02 08:53:44;;;;;;;2.72;1.10;;;22.20;1.00;;;;;;4988875;28;20168;-75
2023/08/02 08:56:10;;;;;;;2.90;1.30;;;22.40;1.00;;;;;;4988478;28;20192;-75
2023/08/02 08:58:37;;;;;;;1.63;1.35;;;22.80;1.00;;;;;;4987601;28;20583;-74
2023/08/02 09:01:05;;;;;;;3.08;1.40;;;23.10;1.00;;;;;;4988150;28;20216;-75
2023/08/02 09:03:32;;;;;;;1.52;1.00;;;23.10;1.00;;;;;;4988294;28;20277;-75
2023/08/02 09:06:02;;;;;;;1.90;1.10;;;23.20;1.00;;;;;;4987768;28;20251;-75
2023/08/02 09:08:28;;;;;;;1.63;1.10;;;23.20;1.00;;;;;;4987970;28;20184;-75
2023/08/02 09:10:54;;;;;;;1.83;1.20;;;23.20;1.00;;;;;;4988749;28;20203;-74
2023/08/02 09:13:27;;;;;;;2.88;1.33;;;23.20;1.00;;;;;;4989052;28;20180;-76
2023/08/02 09:16:05;;;;;;;2.50;1.33;;;22.70;1.00;;;;;;4987521;28;20188;-74
2023/08/02 09:18:39;;;;;;;2.28;1.35;;;22.80;1.00;;;;;;4987051;28;20192;-74
2023/08/02 09:21:06;;;;;;;1.65;1.52;;;22.80;1.00;;;;;;4986781;28;20667;-76
2023/08/02 09:23:32;;;;;;;2.30;1.40;;;22.60;1.00;;;;;;4987902;28;20176;-75
2023/08/02 09:26:16;;;;;;;2.50;1.77;;;22.40;1.00;;;;;;4987414;28;20234;-75
2023/08/02 09:29:00;;;;;;;1.92;1.52;;;22.60;1.00;;;;;;4986487;28;20278;-75
2023/08/02 09:31:28;;;;;;;2.40;1.90;;;22.80;1.00;;;;;;4987463;28;20336;-75
2023/08/02 09:33:54;;;;;;;3.30;1.80;;;22.70;1.00;;;;;;4987973;28;20184;-77
2023/08/02 09:36:30;;;;;;;2.47;1.80;;;22.50;1.00;;;;;;4987106;28;20191;-77
2023/08/02 09:39:16;;;;;;;3.03;1.80;;;22.30;1.00;;;;;;4988452;28;20227;-75
2023/08/02 09:42:13;;;;;;;2.60;1.95;;;22.10;1.00;;;;;;5038189;23;20250;-75
2023/08/02 09:45:18;;;;;;;4.40;2.30;;;20.60;1.00;;;;;;5006234;28;20218;-75
2023/08/02 09:48:06;;;;;;;3.08;2.00;;;22.60;1.00;;;;;;4976755;28;20266;-75
2023/08/02 09:51:19;;;;;;;2.92;1.98;;;21.20;1.00;;;;;;4988381;28;20203;-79
2023/08/02 09:54:25;;;;;;;2.58;2.00;;;21.90;1.00;;;;;;4999851;28;20210;-75
2023/08/02 10:00:40;;;;;;;5.45;2.97;;;20.80;1.00;;;;;;4961306;28;20236;-76
2023/08/02 10:03:07;;;;;;;3.95;2.50;;;20.10;1.00;;;;;;4965247;28;20228;-74
2023/08/02 10:05:37;;;;;;;3.80;2.40;;;20.20;1.00;;;;;;4979882;28;20220;-75
2023/08/02 10:08:05;;;;;;;3.35;2.15;;;20.20;1.00;;;;;;5005891;28;20187;-75
2023/08/02 10:10:38;;;;;;;3.15;2.45;;;20.10;1.00;;;;;;5006449;28;20214;-75
2023/08/02 10:13:18;;;;;;;2.90;2.30;;;20.60;99.90;;;;;;5005953;28;20195;-74
2023/08/02 10:15:49;;;;;;;2.42;2.22;;;21.00;60.00;;;;;;5005746;28;20242;-74
2023/08/02 10:18:16;;;;;;;3.03;2.10;;;21.50;23.90;;;;;;4986720;28;20238;-74
2023/08/02 10:20:43;;;;;;;2.75;2.40;;;21.80;1.00;;;;;;5005417;28;20235;-74
2023/08/02 10:23:09;;;;;;;3.22;2.00;;;21.70;1.00;;;;;;5006055;28;20579;-75
2023/08/02 10:25:35;;;;;;;2.75;2.20;;;21.70;1.00;;;;;;5005839;28;20215;-76
2023/08/02 10:28:02;;;;;;;3.08;2.08;;;21.60;1.00;;;;;;5004484;28;20240;-75
2023/08/02 10:30:30;;;;;;;3.80;2.20;;;21.70;1.00;;;;;;5005780;28;20202;-75
2023/08/02 10:33:18;;;;;;;4.68;2.78;;;21.10;1.00;;;;;;5006284;28;20606;-74
2023/08/02 10:36:02;;;;;;;2.10;1.90;;;20.50;1.00;;;;;;5005967;28;20188;-75
2023/08/02 10:38:39;;;;;;;4.35;2.78;;;19.90;86.60;;;;;;5004253;28;20195;-74
2023/08/02 10:41:09;;;;;;;3.08;2.25;;;19.60;99.90;;;;;;5005311;28;20207;-74
2023/08/02 10:43:57;;;;;;;3.65;2.40;;;19.50;1.00;;;;;;5006173;28;20246;-75
2023/08/02 10:46:28;;;;;;;4.30;2.65;;;19.50;1.00;;;;;;4990075;28;20192;-76
2023/08/02 10:49:20;;;;;;;3.40;2.53;;;19.40;1.00;;;;;;5003697;28;20677;-75
2023/08/02 10:51:46;;;;;;;3.95;2.67;;;19.30;1.00;;;;;;4966786;28;20215;-74
2023/08/02 10:54:22;;;;;;;3.40;2.70;;;19.10;1.00;;;;;;5004875;28;20253;-75
2023/08/02 10:56:51;;;;;;;3.42;2.60;;;19.20;1.00;;;;;;5001944;28;20237;-75
2023/08/02 10:59:18;;;;;;;3.45;2.60;;;19.10;1.00;;;;;;5004053;28;20667;-75
2023/08/02 11:01:56;;;;;;;3.15;2.60;;;19.20;1.00;;;;;;5002898;28;20671;-75
2023/08/02 11:04:23;;;;;;;3.65;2.47;;;19.10;1.00;;;;;;5004284;28;20207;-74
2023/08/02 11:06:49;;;;;;;4.38;2.63;;;19.00;90.80;;;;;;5003152;28;20685;-75
2023/08/02 11:09:15;;;;;;;5.03;3.13;;;19.00;99.90;;;;;;5004778;28;20188;-75
2023/08/02 11:11:40;;;;;;;3.72;2.90;;;19.00;1.00;;;;;;4987735;28;21095;-74
2023/08/02 11:14:06;;;;;;;3.22;2.88;;;19.20;1.00;;;;;;5004625;28;20201;-75
2023/08/02 11:16:41;;;;;;;4.43;2.80;;;18.20;1.00;;;;;;5004869;28;20241;-74
2023/08/02 11:19:10;;;;;;;3.13;2.80;;;19.40;1.00;;;;;;5002767;28;20187;-74
2023/08/02 11:21:37;;;;;;;5.07;3.17;;;19.60;1.00;;;;;;5005055;28;20203;-74
2023/08/02 11:24:03;;;;;;;3.30;2.75;;;19.70;1.00;;;;;;5004947;28;20557;-73
2023/08/02 11:26:31;;;;;;;3.50;2.97;;;19.70;1.00;;;;;;5005747;28;20241;-74
2023/08/02 11:28:56;;;;;;;3.85;2.88;;;19.90;99.90;;;;;;5003432;28;20184;-76
2023/08/02 11:31:24;;;;;;;4.20;2.50;;;20.10;99.90;;;;;;5004776;28;20215;-75
2023/08/02 11:33:50;;;;;;;2.78;1.95;;;20.10;10.30;;;;;;5004899;28;20195;-75
2023/08/02 11:36:16;;;;;;;3.03;2.00;;;20.10;1.00;;;;;;5004968;28;20203;-74
2023/08/02 11:38:42;;;;;;;2.30;2.10;;;19.80;1.00;;;;;;5004210;28;20192;-75
2023/08/02 11:41:16;;;;;;;2.30;2.03;;;19.70;1.00;;;;;;5004484;28;20242;-74
2023/08/02 11:43:43;;;;;;;2.90;2.00;;;19.80;1.00;;;;;;5003472;28;20692;-74
2023/08/02 11:46:13;;;;;;;2.67;2.20;;;19.70;1.00;;;;;;5002974;28;20195;-74
2023/08/02 11:48:39;;;;;;;2.70;1.90;;;19.50;1.00;;;;;;5002725;28;20652;-74
2023/08/02 11:51:05;;;;;;;2.58;2.00;;;19.20;1.00;;;;;;5004205;28;20207;-74
2023/08/02 11:53:31;;;;;;;2.33;1.90;;;19.10;99.90;;;;;;5002776;28;20245;-74
2023/08/02 11:55:57;;;;;;;2.53;1.90;;;19.10;99.90;;;;;;4984264;28;20191;-75
2023/08/02 11:58:22;;;;;;;3.35;2.10;;;19.10;99.90;;;;;;5001373;28;20179;-74
2023/08/02 12:00:48;;;;;;;4.63;2.20;;;19.30;99.90;;;;;;5002336;28;20553;-75
2023/08/02 12:03:15;;;;;;;3.95;2.20;;;19.10;99.90;;;;;;5002414;28;20303;-75
2023/08/02 12:05:42;;;;;;;2.80;1.85;;;19.10;99.90;;;;;;5002737;28;20262;-75
2023/08/02 12:08:17;;;;;;;3.33;1.95;;;19.40;3.00;;;;;;4982627;28;20214;-74
2023/08/02 12:10:43;;;;;;;2.55;1.70;;;19.80;1.00;;;;;;5003832;28;20678;-75
2023/08/02 12:13:14;;;;;;;2.13;1.70;;;20.00;1.00;;;;;;5004660;28;20184;-76
2023/08/02 12:16:01;;;;;;;2.33;1.60;;;20.10;1.00;;;;;;5004394;28;20190;-76
2023/08/02 12:18:27;;;;;;;2.00;1.70;;;20.10;1.00;;;;;;5003317;28;20187;-75
2023/08/02 12:20:53;;;;;;;3.72;1.60;;;20.10;99.90;;;;;;5003635;28;20211;-74
2023/08/02 12:23:35;;;;;;;2.28;1.50;;;20.20;99.90;;;;;;5003579;28;20249;-75
2023/08/02 12:26:01;;;;;;;2.85;1.52;;;20.10;99.90;;;;;;5004335;28;20190;-75
2023/08/02 12:28:47;;;;;;;1.67;1.58;;;19.90;99.90;;;;;;5004132;28;20219;-74
2023/08/02 12:31:13;;;;;;;1.90;1.50;;;19.90;99.90;;;;;;5004047;28;20211;-75
2023/08/02 12:33:39;;;;;;;3.08;1.55;;;19.80;99.90;;;;;;4986922;28;20183;-75
2023/08/02 12:36:04;;;;;;;1.88;1.25;;;20.00;99.90;;;;;;5004401;28;20522;-74
2023/08/02 12:38:31;;;;;;;2.20;1.45;;;19.90;99.90;;;;;;5003212;28;20179;-75
2023/08/02 12:40:57;;;;;;;1.95;1.40;;;20.00;99.90;;;;;;5003275;28;20251;-75
2023/08/02 12:43:23;;;;;;;2.35;1.40;;;19.80;99.90;;;;;;5004246;28;20171;-75
2023/08/02 12:45:53;;;;;;;1.50;1.40;;;19.70;99.90;;;;;;5003948;28;21097;-74
2023/08/02 12:48:19;;;;;;;2.20;1.50;;;19.60;99.90;;;;;;5002956;28;20176;-75
2023/08/02 12:50:45;;;;;;;2.97;1.60;;;19.60;99.90;;;;;;5003624;28;20226;-74
2023/08/02 12:53:11;;;;;;;1.40;1.30;;;19.60;99.90;;;;;;5003939;28;20184;-75
2023/08/02 12:55:37;;;;;;;1.48;1.30;;;19.50;99.90;;;;;;5004395;28;20203;-76
2023/08/02 12:58:03;;;;;;;1.40;1.23;;;19.50;99.90;;;;;;5003673;28;20270;-75
2023/08/02 13:00:29;;;;;;;1.52;1.40;;;19.50;99.90;;;;;;5004433;28;20215;-75